createdAt,value
2022-10-19T00:01:16.860Z,3.44
2022-10-19T00:03:45.637Z,3.31
2022-10-19T00:06:27.013Z,3.22
2022-10-19T00:09:15.144Z,3.51
2022-10-19T00:11:45.635Z,3.34
2022-10-19T00:14:15.159Z,3.28
2022-10-19T00:16:43.835Z,3.48
2022-10-19T00:19:14.340Z,3.33
2022-10-19T00:21:43.554Z,3.16
2022-10-19T00:24:10.862Z,3.34
2022-10-19T00:26:37.845Z,3.24
2022-10-19T00:29:05.683Z,3.04
2022-10-19T00:31:32.563Z,3.16
2022-10-19T00:33:59.939Z,3.15
2022-10-19T00:36:34.880Z,2.90
2022-10-19T00:39:01.775Z,3.01
2022-10-19T00:41:31.081Z,3.04
2022-10-19T00:44:06.318Z,2.88
2022-10-19T00:46:35.766Z,2.88
2022-10-19T00:49:10.873Z,2.96
2022-10-19T00:51:41.060Z,2.79
2022-10-19T00:54:10.768Z,2.76
2022-10-19T00:56:41.155Z,2.92
2022-10-19T00:59:08.795Z,2.74
2022-10-19T01:01:35.957Z,2.71
2022-10-19T01:04:03.976Z,2.83
2022-10-19T01:06:32.038Z,2.73
2022-10-19T01:08:58.694Z,2.56
2022-10-19T01:12:03.814Z,2.75
2022-10-19T01:14:51.675Z,2.65
2022-10-19T01:17:48.723Z,2.69
2022-10-19T01:20:42.102Z,2.85
2022-10-19T01:23:46.321Z,2.59
2022-10-19T01:26:34.529Z,2.63
2022-10-19T01:29:36.449Z,2.73
2022-10-19T01:32:11.520Z,2.64
2022-10-19T01:35:10.184Z,2.74
2022-10-19T01:37:37.475Z,2.78
2022-10-19T01:40:18.994Z,2.63
2022-10-19T01:45:32.188Z,2.86
2022-10-19T01:48:14.220Z,2.74
2022-10-19T01:50:50.563Z,2.70
2022-10-19T01:53:21.322Z,2.84
2022-10-19T01:55:51.433Z,2.72
2022-10-19T01:58:25.180Z,2.74
2022-10-19T02:00:54.230Z,2.87
2022-10-19T02:03:22.115Z,2.64
2022-10-19T02:05:51.871Z,2.59
2022-10-19T02:08:31.064Z,2.74
2022-10-19T02:10:59.100Z,2.63
2022-10-19T02:13:30.388Z,2.60
2022-10-19T02:16:02.161Z,2.77
2022-10-19T02:18:35.773Z,2.66
2022-10-19T02:21:06.655Z,2.60
2022-10-19T02:23:35.961Z,2.77
2022-10-19T02:26:02.984Z,2.60
2022-10-19T02:28:30.555Z,2.63
2022-10-19T02:30:58.740Z,2.80
2022-10-19T02:33:26.044Z,2.66
2022-10-19T02:35:52.786Z,2.54
2022-10-19T02:38:22.640Z,2.77
2022-10-19T02:41:14.680Z,2.63
2022-10-19T02:43:44.910Z,2.54
2022-10-19T02:46:23.651Z,2.70
2022-10-19T02:48:51.622Z,2.62
2022-10-19T02:51:35.971Z,2.56
2022-10-19T02:54:05.596Z,2.69
2022-10-19T02:56:33.382Z,2.56
2022-10-19T02:59:00.062Z,2.43
2022-10-19T03:01:26.734Z,2.61
2022-10-19T03:03:53.344Z,2.53
2022-10-19T03:06:19.937Z,2.41
2022-10-19T03:08:49.047Z,2.54
2022-10-19T03:11:15.587Z,2.49
2022-10-19T03:13:42.957Z,2.39
2022-10-19T03:16:13.720Z,2.48
2022-10-19T03:18:40.436Z,2.55
2022-10-19T03:21:12.388Z,2.27
2022-10-19T03:23:41.494Z,2.35
2022-10-19T03:26:12.434Z,2.43
2022-10-19T03:28:39.406Z,2.30
2022-10-19T03:31:06.141Z,2.30
2022-10-19T03:33:32.894Z,2.47
2022-10-19T03:36:16.849Z,2.29
2022-10-19T03:38:43.933Z,2.25
2022-10-19T03:41:10.679Z,2.49
2022-10-19T03:43:37.451Z,2.34
2022-10-19T03:46:04.052Z,2.25
2022-10-19T03:48:30.709Z,2.43
2022-10-19T03:51:01.897Z,2.31
2022-10-19T03:53:33.367Z,2.17
2022-10-19T03:56:08.664Z,2.36
2022-10-19T03:58:37.305Z,2.23
2022-10-19T04:01:09.217Z,2.04
2022-10-19T04:06:05.485Z,2.08
2022-10-19T04:08:32.296Z,1.98
2022-10-19T04:11:07.001Z,2.03
2022-10-19T04:13:34.449Z,2.12
2022-10-19T04:16:01.912Z,1.97
2022-10-19T04:18:28.758Z,1.86
2022-10-19T04:21:04.871Z,2.03
2022-10-19T04:23:35.105Z,1.89
2022-10-19T04:26:06.063Z,1.85
2022-10-19T04:28:32.995Z,2.08
2022-10-19T04:31:03.919Z,2.10
2022-10-19T04:33:30.812Z,2.02
2022-10-19T04:36:00.880Z,2.11
2022-10-19T04:38:28.481Z,2.11
2022-10-19T04:40:56.134Z,1.91
2022-10-19T04:43:22.960Z,2.01
2022-10-19T04:45:49.531Z,2.08
2022-10-19T04:48:16.139Z,1.94
2022-10-19T04:50:42.715Z,2.02
2022-10-19T04:53:09.840Z,2.10
2022-10-19T04:55:42.408Z,1.85
2022-10-19T04:58:09.282Z,1.86
2022-10-19T05:00:38.353Z,2.06
2022-10-19T05:03:05.321Z,1.88
2022-10-19T05:05:32.724Z,1.80
2022-10-19T05:07:59.267Z,2.00
2022-10-19T05:10:26.065Z,2.10
2022-10-19T05:12:52.775Z,2.05
2022-10-19T05:15:19.683Z,2.19
2022-10-19T05:17:46.383Z,2.28
2022-10-19T05:20:13.024Z,2.20
2022-10-19T05:22:41.697Z,2.25
2022-10-19T05:25:08.821Z,2.32
2022-10-19T05:27:37.313Z,2.15
2022-10-19T05:30:06.413Z,2.20
2022-10-19T05:32:32.961Z,2.39
2022-10-19T05:34:59.563Z,2.27
2022-10-19T05:37:26.356Z,2.28
2022-10-19T05:39:56.245Z,2.42
2022-10-19T05:42:22.824Z,2.32
2022-10-19T05:44:49.367Z,2.27
2022-10-19T05:47:15.992Z,2.45
2022-10-19T05:49:42.544Z,2.37
2022-10-19T05:52:09.170Z,2.30
2022-10-19T05:54:37.732Z,2.52
2022-10-19T05:57:04.367Z,2.56
2022-10-19T05:59:31.149Z,2.40
2022-10-19T06:01:57.749Z,2.48
2022-10-19T06:04:24.380Z,2.60
2022-10-19T06:06:50.968Z,2.50
2022-10-19T06:09:17.568Z,2.60
2022-10-19T06:11:45.911Z,2.65
2022-10-19T06:14:15.958Z,2.53
2022-10-19T06:16:43.196Z,2.60
2022-10-19T06:19:09.823Z,2.77
2022-10-19T06:21:36.816Z,2.65
2022-10-19T06:24:07.619Z,2.74
2022-10-19T06:26:35.817Z,2.73
2022-10-19T06:29:03.931Z,2.67
2022-10-19T06:31:32.648Z,2.84
2022-10-19T06:33:59.991Z,2.89
2022-10-19T06:36:29.661Z,2.92
2022-10-19T06:39:02.581Z,2.97
2022-10-19T06:41:31.220Z,3.02
2022-10-19T06:43:57.821Z,3.04
2022-10-19T06:46:25.988Z,3.08
2022-10-19T06:48:55.094Z,3.10
2022-10-19T06:51:22.286Z,3.16
2022-10-19T06:53:54.220Z,3.20
2022-10-19T06:56:26.790Z,3.23
2022-10-19T06:58:54.390Z,3.29
2022-10-19T07:01:21.771Z,3.33
2022-10-19T07:03:51.078Z,3.39
2022-10-19T07:06:17.908Z,3.46
2022-10-19T07:08:44.686Z,3.52
2022-10-19T07:11:15.265Z,3.58
2022-10-19T07:13:41.988Z,3.65
2022-10-19T07:16:15.898Z,3.72
2022-10-19T07:18:46.812Z,3.79
2022-10-19T07:21:15.667Z,3.85
2022-10-19T07:23:46.139Z,3.89
2022-10-19T07:26:17.193Z,3.93
2022-10-19T07:28:46.775Z,3.97
2022-10-19T07:31:17.991Z,4.00
2022-10-19T07:33:44.887Z,4.05
2022-10-19T07:36:13.385Z,4.10
2022-10-19T07:38:40.971Z,4.16
2022-10-19T07:41:10.315Z,4.25
2022-10-19T07:43:36.935Z,4.33
2022-10-19T07:46:06.843Z,4.38
2022-10-19T07:48:35.109Z,4.46
2022-10-19T07:51:03.711Z,4.54
2022-10-19T07:53:30.397Z,4.61
2022-10-19T07:56:04.831Z,4.70
2022-10-19T07:58:31.667Z,4.78
2022-10-19T08:01:05.436Z,4.89
2022-10-19T08:06:20.615Z,5.04
2022-10-19T08:08:48.848Z,5.10
2022-10-19T08:11:27.667Z,5.16
2022-10-19T08:13:54.933Z,5.24
2022-10-19T08:16:26.157Z,5.30
2022-10-19T08:18:55.796Z,5.37
2022-10-19T08:21:22.565Z,5.41
2022-10-19T08:23:49.125Z,5.44
2022-10-19T08:26:15.733Z,5.47
2022-10-19T08:28:42.281Z,5.52
2022-10-19T08:31:17.495Z,5.61
2022-10-19T08:33:44.694Z,5.64
2022-10-19T08:36:13.702Z,5.72
2022-10-19T08:38:40.484Z,5.80
2022-10-19T08:41:32.656Z,5.84
2022-10-19T08:44:30.272Z,5.84
2022-10-19T08:47:12.189Z,5.90
2022-10-19T08:49:40.161Z,5.89
2022-10-19T08:52:21.482Z,5.93
2022-10-19T08:54:57.521Z,5.92
2022-10-19T08:57:24.508Z,5.92
2022-10-19T09:00:02.076Z,5.86
2022-10-19T09:03:03.638Z,5.77
2022-10-19T09:05:43.840Z,5.77
2022-10-19T09:08:16.836Z,5.85
2022-10-19T09:10:49.171Z,5.96
2022-10-19T09:13:21.833Z,5.99
2022-10-19T09:15:50.798Z,6.02
2022-10-19T09:18:23.995Z,6.02
2022-10-19T09:20:57.881Z,6.05
2022-10-19T09:23:44.061Z,6.03
2022-10-19T09:26:16.907Z,6.05
2022-10-19T09:28:55.768Z,6.11
2022-10-19T09:31:31.847Z,6.17
2022-10-19T09:34:03.294Z,6.21
2022-10-19T09:36:50.520Z,6.24
2022-10-19T09:39:18.271Z,6.31
2022-10-19T09:41:53.912Z,6.36
2022-10-19T09:44:21.655Z,6.44
2022-10-19T09:47:24.672Z,6.62
2022-10-19T09:49:51.470Z,6.74
2022-10-19T09:52:52.400Z,6.86
2022-10-19T09:55:45.705Z,6.93
2022-10-19T09:58:15.391Z,6.88
2022-10-19T10:00:50.658Z,6.90
2022-10-19T10:03:40.555Z,6.98
2022-10-19T10:06:14.904Z,7.05
2022-10-19T10:08:58.559Z,7.01
2022-10-19T10:11:28.970Z,6.95
2022-10-19T10:13:57.748Z,6.99
2022-10-19T10:16:30.424Z,7.05
2022-10-19T10:19:10.777Z,7.05
2022-10-19T10:21:49.997Z,6.99
2022-10-19T10:24:18.490Z,6.96
2022-10-19T10:26:51.331Z,6.96
2022-10-19T10:29:23.521Z,7.05
2022-10-19T10:31:53.813Z,7.14
2022-10-19T10:35:00.015Z,7.19
2022-10-19T10:37:37.976Z,7.21
2022-10-19T10:40:06.460Z,7.27
2022-10-19T10:42:43.523Z,7.30
2022-10-19T10:45:26.116Z,7.29
2022-10-19T10:47:53.736Z,7.35
2022-10-19T10:50:33.832Z,7.30
2022-10-19T10:53:49.581Z,7.32
2022-10-19T10:56:35.252Z,7.26
2022-10-19T10:59:16.239Z,7.28
2022-10-19T11:01:58.718Z,7.39
2022-10-19T11:04:31.870Z,7.53
2022-10-19T11:07:07.279Z,7.64
2022-10-19T11:09:42.608Z,7.64
2022-10-19T11:12:19.192Z,7.63
2022-10-19T11:14:45.713Z,7.68
2022-10-19T11:17:24.990Z,7.71
2022-10-19T11:19:51.755Z,7.74
2022-10-19T11:22:43.101Z,7.78
2022-10-19T11:25:46.831Z,7.81
2022-10-19T11:28:40.562Z,7.89
2022-10-19T11:31:19.236Z,7.95
2022-10-19T11:34:00.378Z,8.00
2022-10-19T11:36:45.651Z,8.09
2022-10-19T11:39:15.113Z,8.12
2022-10-19T11:42:01.944Z,8.18
2022-10-19T11:44:51.802Z,8.21
2022-10-19T11:47:29.621Z,8.23
2022-10-19T11:53:05.130Z,8.27
2022-10-19T11:55:37.653Z,8.36
2022-10-19T11:58:14.109Z,8.41
2022-10-19T12:01:06.697Z,8.47
2022-10-19T12:03:48.363Z,8.50
2022-10-19T12:06:29.476Z,8.47
2022-10-19T12:09:14.853Z,8.45
2022-10-19T12:11:59.462Z,8.49
2022-10-19T12:14:31.978Z,8.50
2022-10-19T12:17:02.932Z,8.55
2022-10-19T12:19:36.547Z,8.55
2022-10-19T12:22:06.273Z,8.55
2022-10-19T12:24:34.181Z,8.55
2022-10-19T12:27:03.984Z,8.52
2022-10-19T12:29:39.517Z,8.51
2022-10-19T12:32:07.406Z,8.56
2022-10-19T12:35:00.473Z,8.52
2022-10-19T12:37:40.346Z,8.44
2022-10-19T12:40:25.518Z,8.35
2022-10-19T12:43:27.118Z,8.26
2022-10-19T12:46:21.203Z,8.17
2022-10-19T12:49:30.615Z,8.17
2022-10-19T12:51:59.763Z,8.13
2022-10-19T12:54:33.740Z,7.88
2022-10-19T12:57:02.807Z,7.95
2022-10-19T12:59:32.648Z,8.05
2022-10-19T13:02:01.117Z,8.13
2022-10-19T13:04:30.559Z,8.17
2022-10-19T13:06:57.103Z,8.21
2022-10-19T13:09:32.668Z,8.17
2022-10-19T13:12:25.886Z,7.96
2022-10-19T13:15:00.138Z,7.83
2022-10-19T13:17:49.119Z,7.97
2022-10-19T13:20:15.813Z,8.00
2022-10-19T13:22:45.112Z,8.07
2022-10-19T13:25:35.329Z,7.83
2022-10-19T13:28:08.445Z,7.72
2022-10-19T13:31:03.253Z,7.90
2022-10-19T13:33:32.819Z,8.00
2022-10-19T13:35:59.360Z,7.99
2022-10-19T13:38:32.804Z,7.69
2022-10-19T13:41:18.924Z,7.80
2022-10-19T13:44:06.798Z,7.92
2022-10-19T13:46:44.222Z,7.65
2022-10-19T13:49:27.859Z,7.71
2022-10-19T13:52:17.407Z,7.86
2022-10-19T13:55:12.149Z,7.76
2022-10-19T13:58:20.736Z,7.56
2022-10-19T14:01:18.402Z,7.79
2022-10-19T14:04:16.075Z,7.81
2022-10-19T14:06:48.963Z,7.50
2022-10-19T14:09:48.028Z,7.72
2022-10-19T14:12:18.476Z,7.86
2022-10-19T14:14:45.406Z,7.58
2022-10-19T14:19:53.952Z,7.68
2022-10-19T14:22:25.536Z,7.40
2022-10-19T14:24:59.540Z,7.58
2022-10-19T14:27:26.257Z,7.69
2022-10-19T14:29:54.800Z,7.25
2022-10-19T14:32:26.305Z,7.21
2022-10-19T14:34:54.753Z,7.41
2022-10-19T14:37:24.703Z,7.15
2022-10-19T14:40:08.762Z,7.23
2022-10-19T14:42:41.135Z,7.42
2022-10-19T14:45:15.054Z,7.24
2022-10-19T14:48:17.006Z,7.30
2022-10-19T14:50:51.641Z,7.59
2022-10-19T14:53:35.521Z,7.34
2022-10-19T14:56:08.193Z,7.41
2022-10-19T14:59:00.704Z,7.74
2022-10-19T15:01:27.452Z,7.91
2022-10-19T15:03:56.207Z,7.97
2022-10-19T15:06:29.520Z,7.61
2022-10-19T15:09:05.305Z,7.65
2022-10-19T15:11:46.901Z,7.84
2022-10-19T15:14:19.241Z,7.90
2022-10-19T15:16:56.569Z,7.61
2022-10-19T15:19:31.833Z,7.42
2022-10-19T15:22:20.685Z,7.59
2022-10-19T15:25:05.913Z,7.48
2022-10-19T15:27:37.836Z,6.99
2022-10-19T15:30:23.385Z,7.10
2022-10-19T15:33:13.296Z,7.22
2022-10-19T15:35:44.137Z,6.79
2022-10-19T15:38:27.054Z,6.84
2022-10-19T15:40:59.256Z,7.01
2022-10-19T15:43:34.592Z,7.12
2022-10-19T15:46:22.183Z,7.17
2022-10-19T15:48:55.334Z,7.17
2022-10-19T15:51:25.080Z,7.19
2022-10-19T15:53:53.444Z,7.21
2022-10-19T15:56:26.551Z,7.21
2022-10-19T15:58:55.315Z,7.16
2022-10-19T16:01:27.790Z,7.11
2022-10-19T16:03:54.598Z,7.09
2022-10-19T16:06:23.428Z,7.05
2022-10-19T16:08:51.364Z,7.09
2022-10-19T16:11:20.095Z,7.11
2022-10-19T16:13:47.184Z,7.15
2022-10-19T16:16:26.955Z,7.09
2022-10-19T16:18:54.551Z,7.08
2022-10-19T16:21:24.475Z,7.09
2022-10-19T16:23:52.366Z,7.05
2022-10-19T16:26:19.839Z,6.89
2022-10-19T16:28:46.498Z,6.27
2022-10-19T16:31:13.175Z,5.77
2022-10-19T16:33:39.768Z,5.93
2022-10-19T16:36:07.579Z,5.92
2022-10-19T16:38:35.387Z,5.89
2022-10-19T16:41:03.649Z,6.00
2022-10-19T16:43:30.663Z,5.94
2022-10-19T16:45:57.793Z,5.67
2022-10-19T16:48:24.921Z,5.72
2022-10-19T16:51:06.676Z,5.79
2022-10-19T16:53:37.818Z,5.69
2022-10-19T16:56:09.712Z,5.87
2022-10-19T16:58:37.408Z,5.87
2022-10-19T17:01:08.823Z,5.75
2022-10-19T17:03:38.060Z,5.93
2022-10-19T17:06:06.072Z,5.94
2022-10-19T17:08:44.211Z,5.73
2022-10-19T17:11:22.389Z,5.85
2022-10-19T17:13:51.294Z,5.83
2022-10-19T17:16:20.299Z,5.72
2022-10-19T17:18:47.663Z,5.90
2022-10-19T17:21:17.512Z,5.69
2022-10-19T17:23:44.377Z,5.49
2022-10-19T17:26:11.813Z,5.64
2022-10-19T17:28:42.792Z,5.53
2022-10-19T17:31:14.128Z,5.19
2022-10-19T17:33:41.536Z,5.33
2022-10-19T17:36:09.568Z,5.27
2022-10-19T17:38:36.985Z,5.04
2022-10-19T17:41:07.046Z,5.02
2022-10-19T17:43:34.063Z,5.06
2022-10-19T17:46:05.250Z,4.90
2022-10-19T17:48:33.350Z,4.82
2022-10-19T17:51:02.859Z,4.98
2022-10-19T17:53:30.934Z,4.93
2022-10-19T17:56:03.367Z,4.96
2022-10-19T17:58:37.661Z,5.17
2022-10-19T18:01:07.168Z,5.08
2022-10-19T18:03:34.832Z,5.16
2022-10-19T18:06:06.887Z,5.24
2022-10-19T18:08:42.155Z,5.21
2022-10-19T18:11:15.268Z,5.28
2022-10-19T18:13:42.129Z,5.21
2022-10-19T18:16:18.378Z,4.91
2022-10-19T18:18:48.582Z,5.01
2022-10-19T18:21:18.037Z,5.10
2022-10-19T18:23:44.765Z,4.92
2022-10-19T18:26:14.875Z,5.09
2022-10-19T18:28:42.488Z,5.15
2022-10-19T18:31:10.355Z,5.07
2022-10-19T18:33:40.329Z,5.18
2022-10-19T18:36:08.655Z,5.10
2022-10-19T18:38:35.516Z,4.99
2022-10-19T18:43:39.669Z,5.04
2022-10-19T18:46:07.512Z,4.96
2022-10-19T18:48:37.107Z,5.01
2022-10-19T18:51:08.295Z,4.97
2022-10-19T18:53:36.652Z,4.75
2022-10-19T18:56:08.741Z,4.90
2022-10-19T18:58:36.392Z,4.79
2022-10-19T19:01:11.717Z,4.66
2022-10-19T19:03:41.167Z,4.82
2022-10-19T19:06:15.834Z,4.79
2022-10-19T19:08:45.498Z,4.62
2022-10-19T19:11:17.128Z,4.69
2022-10-19T19:13:49.227Z,4.65
2022-10-19T19:16:15.920Z,4.51
2022-10-19T19:18:42.782Z,4.66
2022-10-19T19:21:18.481Z,4.55
2022-10-19T19:23:45.524Z,4.44
2022-10-19T19:26:13.522Z,4.64
2022-10-19T19:28:42.319Z,4.48
2022-10-19T19:31:11.736Z,4.55
2022-10-19T19:33:39.133Z,4.59
2022-10-19T19:36:07.371Z,4.36
2022-10-19T19:38:34.577Z,4.47
2022-10-19T19:41:06.406Z,4.41
2022-10-19T19:43:35.199Z,4.30
2022-10-19T19:46:08.040Z,4.45
2022-10-19T19:48:37.111Z,4.32
2022-10-19T19:51:03.932Z,4.21
2022-10-19T19:53:31.729Z,4.40
2022-10-19T19:55:59.124Z,4.24
2022-10-19T19:58:26.129Z,4.26
2022-10-19T20:00:54.629Z,4.39
2022-10-19T20:03:21.193Z,4.09
2022-10-19T20:05:47.805Z,4.16
2022-10-19T20:08:14.396Z,4.12
2022-10-19T20:10:42.346Z,3.99
2022-10-19T20:13:09.477Z,4.11
2022-10-19T20:15:39.492Z,4.02
2022-10-19T20:18:06.708Z,3.92
2022-10-19T20:20:33.402Z,4.07
2022-10-19T20:23:00.102Z,4.01
2022-10-19T20:25:26.848Z,3.88
2022-10-19T20:27:53.479Z,4.02
2022-10-19T20:30:20.299Z,3.90
2022-10-19T20:32:46.856Z,3.67
2022-10-19T20:35:13.908Z,3.70
2022-10-19T20:37:40.542Z,3.58
2022-10-19T20:40:08.953Z,3.52
2022-10-19T20:42:36.366Z,3.72
2022-10-19T20:45:03.951Z,3.61
2022-10-19T20:47:30.628Z,3.45
2022-10-19T20:49:57.254Z,3.53
2022-10-19T20:52:23.860Z,3.35
2022-10-19T20:54:51.170Z,3.20
2022-10-19T20:57:17.772Z,3.32
2022-10-19T20:59:45.752Z,3.33
2022-10-19T21:02:12.372Z,3.27
2022-10-19T21:04:41.119Z,3.41
2022-10-19T21:07:07.894Z,3.30
2022-10-19T21:09:36.392Z,3.07
2022-10-19T21:12:05.096Z,3.12
2022-10-19T21:14:31.780Z,3.23
2022-10-19T21:16:59.499Z,3.10
2022-10-19T21:19:27.989Z,3.27
2022-10-19T21:21:57.755Z,3.29
2022-10-19T21:24:32.365Z,3.13
2022-10-19T21:27:04.872Z,3.12
2022-10-19T21:29:31.639Z,3.04
2022-10-19T21:31:58.237Z,2.73
2022-10-19T21:34:30.422Z,2.68
2022-10-19T21:36:58.108Z,2.77
2022-10-19T21:39:24.878Z,2.56
2022-10-19T21:41:51.598Z,2.51
2022-10-19T21:44:18.999Z,2.73
2022-10-19T21:46:47.915Z,2.53
2022-10-19T21:49:14.980Z,2.43
2022-10-19T21:51:54.403Z,2.59
2022-10-19T21:54:24.990Z,2.37
2022-10-19T21:56:53.400Z,2.19
2022-10-19T21:59:20.166Z,2.23
2022-10-19T22:01:46.859Z,2.13
2022-10-19T22:04:16.923Z,1.59
2022-10-19T22:06:44.712Z,1.64
2022-10-19T22:09:15.939Z,1.73
2022-10-19T22:11:43.091Z,1.42
2022-10-19T22:14:11.621Z,1.44
2022-10-19T22:16:40.400Z,1.63
2022-10-19T22:19:07.108Z,1.29
2022-10-19T22:21:35.195Z,1.17
2022-10-19T22:24:05.430Z,1.35
2022-10-19T22:26:35.635Z,1.36
2022-10-19T22:29:04.072Z,1.33
2022-10-19T22:31:32.363Z,1.42
2022-10-19T22:34:01.128Z,1.65
2022-10-19T22:36:27.823Z,1.84
2022-10-19T22:38:55.216Z,1.98
2022-10-19T22:41:21.849Z,2.03
2022-10-19T22:43:48.564Z,1.59
2022-10-19T22:46:15.100Z,1.14
2022-10-19T22:48:41.691Z,0.99
2022-10-19T22:51:08.251Z,1.22
2022-10-19T22:53:35.615Z,1.02
2022-10-19T22:56:03.189Z,0.90
2022-10-19T22:58:29.921Z,0.94
2022-10-19T23:01:07.249Z,0.71
2022-10-19T23:03:34.402Z,0.30
2022-10-19T23:06:01.645Z,0.12
2022-10-19T23:08:28.346Z,0.29
2022-10-19T23:10:54.968Z,0.39
2022-10-19T23:13:22.229Z,0.31
2022-10-19T23:15:50.568Z,0.55
2022-10-19T23:18:17.559Z,0.72
2022-10-19T23:20:53.124Z,0.34
2022-10-19T23:23:19.732Z,0.34
2022-10-19T23:26:07.304Z,0.19
2022-10-19T23:28:35.795Z,0.58
2022-10-19T23:31:08.331Z,0.71
2022-10-19T23:33:38.015Z,0.76
2022-10-19T23:36:18.671Z,0.85
2022-10-19T23:38:48.800Z,0.74
2022-10-19T23:41:16.736Z,0.59
2022-10-19T23:43:43.612Z,0.61
2022-10-19T23:46:10.599Z,0.61
2022-10-19T23:48:37.668Z,0.86
2022-10-19T23:51:10.135Z,0.96
2022-10-19T23:53:41.675Z,0.84
2022-10-19T23:56:15.719Z,0.49
2022-10-19T23:58:42.966Z,0.37
